Time;durP1;ratioP1;P1;durP2;ratioP2;P2;SDS_P1;SDS_P2;PMS_P1;PMS_P2;Temp;Humidity;BMP_temperature;BMP_pressure;BME280_temperature;BME280_humidity;BME280_pressure;Samples;Min_cycle;Max_cycle;Signal;HPM_P1;HPM_P2
2020/12/21 08:37:26;;;;;;;14.00;8.00;;;13.70;99.90;;;;;;4157714;30;20409;-76
2020/12/21 08:40:22;;;;;;;15.77;9.27;;;13.70;99.90;;;;;;4759952;30;20047;-76
2020/12/21 08:42:49;;;;;;;17.52;9.43;;;13.80;99.90;;;;;;4762301;30;20506;-75
2020/12/21 08:45:22;;;;;;;19.30;10.48;;;13.80;99.90;;;;;;4783683;29;20386;-76
2020/12/21 08:47:49;;;;;;;16.88;9.10;;;13.70;99.90;;;;;;4778462;29;20406;-76
2020/12/21 08:50:15;;;;;;;16.23;9.00;;;13.70;99.90;;;;;;4787854;29;20118;-77
2020/12/21 08:52:41;;;;;;;15.38;8.85;;;13.80;99.90;;;;;;4776783;29;20049;-76
2020/12/21 08:55:07;;;;;;;15.80;9.23;;;13.80;99.90;;;;;;4786757;29;20043;-75
2020/12/21 08:57:34;;;;;;;16.77;9.90;;;13.90;99.90;;;;;;4789753;29;20023;-75
2020/12/21 09:00:00;;;;;;;15.60;9.15;;;13.90;99.90;;;;;;4786925;29;20063;-75
2020/12/21 09:02:26;;;;;;;14.30;7.25;;;14.00;99.90;;;;;;4788895;29;20426;-75
2020/12/21 09:04:52;;;;;;;17.67;9.10;;;14.00;99.90;;;;;;4796561;29;20133;-75
2020/12/21 09:10:49;;;;;;;18.85;9.70;;;14.20;99.90;;;;;;4795666;29;20074;-76
2020/12/21 09:13:15;;;;;;;17.00;9.80;;;14.20;99.90;;;;;;4799099;29;20073;-75
2020/12/21 09:15:42;;;;;;;19.60;11.70;;;14.30;99.90;;;;;;4796543;29;20452;-75
2020/12/21 09:18:08;;;;;;;19.13;10.90;;;14.40;99.90;;;;;;4777672;29;20100;-75
2020/12/21 09:20:34;;;;;;;14.68;8.45;;;14.40;99.90;;;;;;4794765;29;20114;-75
2020/12/21 09:23:00;;;;;;;15.93;8.20;;;14.50;99.90;;;;;;4792157;29;20383;-76
2020/12/21 09:25:26;;;;;;;12.25;8.05;;;14.50;99.90;;;;;;4796253;29;20031;-75
2020/12/21 09:27:52;;;;;;;18.92;9.32;;;14.60;99.90;;;;;;4793405;29;20030;-75
2020/12/21 09:30:18;;;;;;;13.65;7.70;;;14.50;99.90;;;;;;4788472;29;20494;-75
2020/12/21 09:32:45;;;;;;;15.15;7.95;;;14.50;99.90;;;;;;4790803;29;20501;-75
2020/12/21 09:35:11;;;;;;;13.18;7.50;;;14.60;99.90;;;;;;4790381;29;20093;-75
2020/12/21 09:37:37;;;;;;;14.43;7.90;;;14.60;99.90;;;;;;4777145;29;20055;-75
2020/12/21 09:40:03;;;;;;;16.35;8.52;;;14.60;99.90;;;;;;4792458;29;20023;-75
2020/12/21 09:42:29;;;;;;;13.32;8.07;;;14.70;99.90;;;;;;4793781;29;20087;-75
2020/12/21 09:44:55;;;;;;;12.98;7.47;;;14.70;99.90;;;;;;4795721;29;20517;-75
2020/12/21 09:47:21;;;;;;;10.80;6.82;;;14.80;99.90;;;;;;4795513;29;20028;-75
2020/12/21 09:49:47;;;;;;;11.75;7.40;;;14.80;99.90;;;;;;4775792;29;20569;-76
2020/12/21 09:52:13;;;;;;;9.35;5.60;;;14.80;99.90;;;;;;4791379;29;20030;-75
2020/12/21 09:54:39;;;;;;;9.90;6.25;;;14.90;99.90;;;;;;4779729;29;20480;-75
2020/12/21 09:57:05;;;;;;;8.52;6.00;;;14.90;99.90;;;;;;4792957;29;20509;-76
2020/12/21 09:59:31;;;;;;;13.30;6.57;;;15.00;99.90;;;;;;4792923;29;20042;-76
2020/12/21 10:01:59;;;;;;;12.35;7.22;;;15.00;99.90;;;;;;4794082;29;20401;-75
2020/12/21 10:04:25;;;;;;;12.07;7.28;;;15.00;99.90;;;;;;4790990;29;20375;-75
2020/12/21 10:07:00;;;;;;;11.35;6.60;;;15.10;99.90;;;;;;4792732;29;20088;-75
2020/12/21 10:09:26;;;;;;;10.80;7.13;;;15.20;99.90;;;;;;4794657;29;20027;-75
2020/12/21 10:11:52;;;;;;;12.75;6.70;;;15.20;99.90;;;;;;4793798;29;20532;-76
2020/12/21 10:14:18;;;;;;;14.07;7.72;;;15.20;99.90;;;;;;4791665;29;20027;-75
2020/12/21 10:16:45;;;;;;;16.38;9.60;;;15.30;99.90;;;;;;4793258;29;20048;-76
2020/12/21 10:19:11;;;;;;;16.48;8.82;;;15.30;99.90;;;;;;4778069;29;20126;-75
2020/12/21 10:21:37;;;;;;;19.08;9.65;;;15.30;99.90;;;;;;4794694;29;20422;-75
2020/12/21 10:24:03;;;;;;;24.88;11.43;;;15.40;99.90;;;;;;4778340;29;20030;-76
2020/12/21 10:26:29;;;;;;;14.82;8.68;;;15.40;99.90;;;;;;4792167;29;20031;-77
2020/12/21 10:28:55;;;;;;;27.67;13.52;;;15.40;99.90;;;;;;4794811;29;20038;-77
2020/12/21 10:31:21;;;;;;;11.68;6.38;;;15.50;99.90;;;;;;4792094;29;20058;-77
2020/12/21 10:33:47;;;;;;;17.58;8.93;;;15.50;99.90;;;;;;4801478;29;20498;-76
2020/12/21 10:36:15;;;;;;;17.50;7.60;;;15.50;99.90;;;;;;4790054;29;20066;-77
2020/12/21 10:38:42;;;;;;;14.00;6.88;;;15.50;99.90;;;;;;4788173;29;20082;-76
2020/12/21 10:41:08;;;;;;;13.75;6.95;;;15.70;99.90;;;;;;4786433;29;20039;-76
2020/12/21 10:43:34;;;;;;;10.13;5.70;;;15.70;99.90;;;;;;4775346;29;20547;-77
2020/12/21 10:46:00;;;;;;;8.82;5.10;;;15.70;99.90;;;;;;4787050;29;20106;-76
2020/12/21 10:48:26;;;;;;;9.15;4.80;;;15.80;99.90;;;;;;4788126;29;20058;-77
2020/12/21 10:50:54;;;;;;;9.27;4.68;;;15.80;99.90;;;;;;4781389;29;20438;-76
2020/12/21 10:53:22;;;;;;;16.70;9.00;;;15.80;99.90;;;;;;4793869;29;20092;-76
2020/12/21 10:55:48;;;;;;;10.50;5.30;;;15.90;99.90;;;;;;4782664;29;20126;-77
2020/12/21 10:58:14;;;;;;;8.93;5.18;;;16.00;99.90;;;;;;4792240;29;20118;-76
2020/12/21 11:00:40;;;;;;;10.05;4.43;;;16.10;99.90;;;;;;4783091;29;20486;-76
2020/12/21 11:03:07;;;;;;;9.30;4.88;;;16.20;99.90;;;;;;4779904;29;20027;-77
2020/12/21 11:05:33;;;;;;;7.05;3.88;;;16.30;99.90;;;;;;4789814;29;20039;-76
2020/12/21 11:07:59;;;;;;;8.73;4.72;;;16.40;99.90;;;;;;4786866;29;20032;-76
2020/12/21 11:10:26;;;;;;;8.57;5.28;;;16.30;99.90;;;;;;4790833;29;20039;-76
2020/12/21 11:12:52;;;;;;;7.20;4.07;;;16.40;99.90;;;;;;4773125;29;20078;-76
2020/12/21 11:15:19;;;;;;;7.53;4.30;;;16.50;99.90;;;;;;4793340;29;20046;-76
2020/12/21 11:17:45;;;;;;;10.65;4.03;;;16.80;99.90;;;;;;4787427;29;20437;-77
2020/12/21 11:20:11;;;;;;;10.25;4.72;;;17.20;99.90;;;;;;4786616;29;20521;-77
2020/12/21 11:22:37;;;;;;;7.03;3.90;;;17.70;99.90;;;;;;4785342;29;20055;-77
2020/12/21 11:25:04;;;;;;;9.57;4.00;;;18.10;99.90;;;;;;4788096;29;20113;-77
2020/12/21 11:27:30;;;;;;;6.93;3.97;;;18.10;99.90;;;;;;4789147;29;20118;-77
2020/12/21 11:29:56;;;;;;;8.27;3.72;;;17.90;99.90;;;;;;4786436;29;20105;-76
2020/12/21 11:32:23;;;;;;;7.95;3.90;;;17.90;99.90;;;;;;4780025;29;20038;-76
2020/12/21 11:34:49;;;;;;;7.65;4.35;;;17.70;99.90;;;;;;4788725;29;20134;-76
2020/12/21 11:37:16;;;;;;;6.32;3.30;;;17.50;99.90;;;;;;4783546;29;20042;-76
2020/12/21 11:39:43;;;;;;;6.30;3.50;;;17.20;99.90;;;;;;4786233;29;20399;-76
2020/12/21 11:42:10;;;;;;;9.02;4.43;;;17.20;99.90;;;;;;4788420;29;20039;-76
2020/12/21 11:44:36;;;;;;;6.15;3.17;;;17.10;99.90;;;;;;4787178;29;20030;-76
2020/12/21 11:47:08;;;;;;;7.65;4.95;;;16.80;99.90;;;;;;4783562;29;20367;-76
2020/12/21 11:49:34;;;;;;;6.18;3.65;;;16.90;99.90;;;;;;4781996;29;20023;-79
2020/12/21 11:52:01;;;;;;;7.75;3.83;;;16.80;99.90;;;;;;4787820;29;20433;-75
2020/12/21 11:54:27;;;;;;;7.25;4.00;;;16.90;99.90;;;;;;4783125;29;20039;-75
2020/12/21 11:56:56;;;;;;;6.95;4.28;;;16.90;99.90;;;;;;4787191;29;20035;-77
2020/12/21 11:59:23;;;;;;;7.32;4.68;;;16.90;99.90;;;;;;4763314;29;20058;-76
2020/12/21 12:01:58;;;;;;;10.75;4.95;;;16.80;99.90;;;;;;4784701;29;20100;-76
2020/12/21 12:04:24;;;;;;;6.03;3.85;;;16.80;99.90;;;;;;4792109;29;20534;-76
2020/12/21 12:06:52;;;;;;;5.88;4.13;;;16.70;99.90;;;;;;4773971;29;20530;-75
2020/12/21 12:09:19;;;;;;;7.82;3.90;;;16.80;99.90;;;;;;4785422;29;20387;-75
2020/12/21 12:11:45;;;;;;;6.95;4.35;;;16.90;99.90;;;;;;4790880;29;20063;-76
2020/12/21 12:14:12;;;;;;;8.25;4.03;;;16.70;99.90;;;;;;4790379;29;20867;-76
2020/12/21 12:16:38;;;;;;;6.47;3.67;;;16.70;99.90;;;;;;4776577;29;20448;-75
2020/12/21 12:19:04;;;;;;;7.32;3.95;;;16.60;99.90;;;;;;4795072;29;20385;-77
2020/12/21 12:21:30;;;;;;;11.57;4.47;;;16.60;99.90;;;;;;4788516;29;20031;-77
2020/12/21 12:23:56;;;;;;;7.07;3.70;;;16.60;99.90;;;;;;4789269;29;20032;-76
2020/12/21 12:26:35;;;;;;;9.43;5.18;;;16.40;99.90;;;;;;4791601;29;20043;-77
2020/12/21 12:29:01;;;;;;;6.95;3.78;;;16.20;99.90;;;;;;4796145;29;20433;-76
2020/12/21 12:31:27;;;;;;;11.57;5.78;;;16.20;99.90;;;;;;4789576;29;20153;-76
2020/12/21 12:33:53;;;;;;;12.75;5.07;;;16.10;99.90;;;;;;4792098;29;20054;-76
2020/12/21 12:36:21;;;;;;;7.15;4.63;;;16.20;99.90;;;;;;4789598;29;20402;-76
2020/12/21 12:38:48;;;;;;;6.63;4.07;;;16.20;99.90;;;;;;4788903;29;20054;-76
2020/12/21 12:41:15;;;;;;;7.65;4.18;;;16.20;99.90;;;;;;4787008;29;20039;-77
2020/12/21 12:43:41;;;;;;;6.60;3.83;;;16.20;99.90;;;;;;4795163;29;20932;-76
2020/12/21 12:46:08;;;;;;;7.75;3.70;;;16.20;99.90;;;;;;4791930;29;20101;-77
2020/12/21 12:48:35;;;;;;;8.57;5.97;;;16.10;99.90;;;;;;4796276;29;20039;-76
2020/12/21 12:51:01;;;;;;;6.97;4.50;;;16.10;99.90;;;;;;4793951;29;20145;-76
2020/12/21 12:53:28;;;;;;;4.93;2.92;;;16.30;99.90;;;;;;4796219;29;20092;-76
2020/12/21 12:55:54;;;;;;;6.32;4.03;;;16.50;99.90;;;;;;4790714;29;20066;-76
2020/12/21 12:58:20;;;;;;;5.35;4.07;;;16.70;99.90;;;;;;4790465;29;20038;-77
2020/12/21 13:00:46;;;;;;;4.82;3.30;;;16.80;99.90;;;;;;4778346;29;20043;-76
2020/12/21 13:03:13;;;;;;;6.00;3.30;;;16.60;99.90;;;;;;4792531;29;20034;-77
2020/12/21 13:05:39;;;;;;;9.43;3.92;;;16.70;99.90;;;;;;4790310;29;20489;-77
2020/12/21 13:08:05;;;;;;;6.93;3.40;;;16.50;99.90;;;;;;4791266;29;20046;-77
2020/12/21 13:10:31;;;;;;;6.95;3.17;;;16.30;99.90;;;;;;4793113;29;20114;-76
2020/12/21 13:12:58;;;;;;;6.28;3.42;;;16.00;99.90;;;;;;4793048;29;20031;-75
2020/12/21 13:15:24;;;;;;;6.05;3.45;;;15.90;99.90;;;;;;4793032;29;20609;-75
2020/12/21 13:17:50;;;;;;;7.82;3.30;;;15.80;99.90;;;;;;4793103;29;20034;-76
2020/12/21 13:20:16;;;;;;;5.65;3.15;;;15.90;99.90;;;;;;4796293;29;20035;-75
2020/12/21 13:22:42;;;;;;;7.55;3.38;;;15.90;99.90;;;;;;4791060;29;20027;-77
2020/12/21 13:25:09;;;;;;;5.00;3.58;;;15.90;99.90;;;;;;4793071;29;20034;-75
2020/12/21 13:27:35;;;;;;;6.50;3.40;;;15.90;99.90;;;;;;4792769;29;20034;-77
2020/12/21 13:30:01;;;;;;;5.88;3.40;;;15.80;99.90;;;;;;4793152;29;20430;-77
2020/12/21 13:32:28;;;;;;;10.13;6.15;;;15.90;99.90;;;;;;4796257;29;20431;-77
2020/12/21 13:34:54;;;;;;;8.80;4.90;;;15.90;99.90;;;;;;4785815;29;20044;-76
2020/12/21 13:37:20;;;;;;;7.47;4.07;;;15.70;99.90;;;;;;4785309;30;20055;-76
2020/12/21 13:39:46;;;;;;;11.18;4.55;;;15.70;99.90;;;;;;4786191;29;20027;-77
2020/12/21 13:42:12;;;;;;;9.13;4.28;;;15.70;99.90;;;;;;4786560;30;20042;-76
2020/12/21 13:44:39;;;;;;;7.07;3.10;;;15.70;99.90;;;;;;4786624;29;20066;-76
2020/12/21 13:47:05;;;;;;;5.72;3.40;;;15.90;99.90;;;;;;4785713;29;20208;-77
2020/12/21 13:49:31;;;;;;;8.48;4.68;;;16.20;99.90;;;;;;4786558;30;20098;-77
2020/12/21 13:51:57;;;;;;;5.40;3.95;;;16.40;99.90;;;;;;4786581;29;20055;-77
2020/12/21 13:54:23;;;;;;;7.97;4.70;;;16.80;99.90;;;;;;4786035;30;20513;-77
2020/12/21 13:56:49;;;;;;;5.55;3.60;;;16.70;99.90;;;;;;4785705;30;20050;-76
2020/12/21 13:59:15;;;;;;;6.85;3.95;;;16.90;99.90;;;;;;4769133;30;20031;-77
2020/12/21 14:01:41;;;;;;;7.63;3.65;;;17.10;99.90;;;;;;4786606;30;20043;-77
2020/12/21 14:04:07;;;;;;;8.07;3.08;;;17.20;99.90;;;;;;4786417;30;20092;-76
2020/12/21 14:06:33;;;;;;;5.45;2.90;;;16.90;99.90;;;;;;4786426;30;20040;-77
2020/12/21 14:09:00;;;;;;;4.35;3.00;;;17.10;99.90;;;;;;4785357;30;20563;-77
2020/12/21 14:11:27;;;;;;;4.57;2.90;;;17.00;99.90;;;;;;4786265;30;20036;-77
2020/12/21 14:13:54;;;;;;;7.47;2.83;;;16.80;99.90;;;;;;4785768;30;20043;-77
2020/12/21 14:16:20;;;;;;;5.35;2.72;;;16.60;99.90;;;;;;4785994;30;20063;-77
2020/12/21 14:18:49;;;;;;;3.22;2.58;;;16.60;99.90;;;;;;4785737;30;20533;-76
2020/12/21 14:21:15;;;;;;;4.38;2.80;;;16.60;99.90;;;;;;4785649;30;20038;-77
2020/12/21 14:23:42;;;;;;;4.03;2.60;;;16.50;99.90;;;;;;4780590;30;20066;-76
2020/12/21 14:26:09;;;;;;;4.05;2.75;;;16.60;99.90;;;;;;4786076;30;20110;-77
2020/12/21 14:28:36;;;;;;;7.43;2.70;;;16.60;99.90;;;;;;4785489;30;20173;-76
2020/12/21 14:31:03;;;;;;;5.38;2.58;;;16.30;99.90;;;;;;4769525;30;20027;-77
2020/12/21 14:33:29;;;;;;;5.95;3.00;;;16.00;99.90;;;;;;4784881;30;20046;-77
2020/12/21 14:35:56;;;;;;;5.43;2.83;;;15.90;99.90;;;;;;4785248;30;20050;-76
2020/12/21 14:38:23;;;;;;;3.47;2.53;;;15.70;99.90;;;;;;4785282;30;20043;-76
2020/12/21 14:40:49;;;;;;;3.83;3.08;;;15.60;99.90;;;;;;4784985;30;20035;-76
2020/12/21 14:43:15;;;;;;;4.75;2.83;;;15.60;99.90;;;;;;4785753;30;20083;-77
2020/12/21 14:45:41;;;;;;;6.63;3.00;;;15.70;99.90;;;;;;4785255;30;20042;-77
2020/12/21 14:48:08;;;;;;;6.80;3.65;;;15.90;99.90;;;;;;4785376;30;20498;-76
2020/12/21 14:50:34;;;;;;;5.53;2.95;;;15.90;99.90;;;;;;4785063;29;20031;-77
2020/12/21 14:53:00;;;;;;;4.32;3.05;;;15.80;99.90;;;;;;4785570;30;20028;-77
2020/12/21 14:55:26;;;;;;;3.83;2.42;;;15.60;99.90;;;;;;4785165;30;20047;-77
2020/12/21 14:57:53;;;;;;;4.95;3.50;;;15.50;99.90;;;;;;4785281;30;20031;-77
2020/12/21 15:00:19;;;;;;;4.45;2.88;;;15.40;99.90;;;;;;4784981;29;20027;-77
2020/12/21 15:02:45;;;;;;;4.97;3.05;;;15.30;99.90;;;;;;4785269;30;20569;-77
2020/12/21 15:05:11;;;;;;;5.50;2.85;;;15.30;99.90;;;;;;4784798;30;20527;-77
2020/12/21 15:07:38;;;;;;;4.75;3.22;;;15.30;99.90;;;;;;4785584;30;20419;-76
2020/12/21 15:10:09;;;;;;;4.55;2.88;;;15.30;99.90;;;;;;4784321;30;20031;-76
2020/12/21 15:12:36;;;;;;;4.53;2.80;;;15.30;99.90;;;;;;4785109;30;20114;-76
2020/12/21 15:15:06;;;;;;;7.35;3.13;;;15.20;99.90;;;;;;4768825;30;20040;-76
2020/12/21 15:17:32;;;;;;;4.18;3.13;;;15.20;99.90;;;;;;4784927;30;20452;-77
2020/12/21 15:19:58;;;;;;;4.32;2.78;;;15.20;99.90;;;;;;4784481;30;20458;-76
2020/12/21 15:22:25;;;;;;;5.05;3.15;;;15.10;99.90;;;;;;4785021;30;20426;-76
2020/12/21 15:24:51;;;;;;;5.30;2.70;;;15.10;99.90;;;;;;4784768;30;20530;-77
2020/12/21 15:27:17;;;;;;;4.97;2.92;;;15.00;99.90;;;;;;4768444;30;20063;-77
2020/12/21 15:29:43;;;;;;;5.05;2.90;;;14.90;99.90;;;;;;4784953;30;20100;-77
2020/12/21 15:32:09;;;;;;;5.28;2.92;;;14.80;99.90;;;;;;4784470;30;20448;-76
2020/12/21 15:34:35;;;;;;;5.05;3.75;;;14.70;99.90;;;;;;4767950;30;20454;-76
2020/12/21 15:37:01;;;;;;;3.97;3.40;;;14.70;99.90;;;;;;4784051;29;20034;-76
2020/12/21 15:39:28;;;;;;;6.50;4.28;;;14.60;99.90;;;;;;4784933;30;20084;-76
2020/12/21 15:41:54;;;;;;;10.75;6.57;;;14.50;99.90;;;;;;4782500;30;20464;-76
2020/12/21 15:44:20;;;;;;;29.15;15.82;;;14.50;99.90;;;;;;4768126;30;20556;-76
2020/12/21 15:46:46;;;;;;;76.32;33.35;;;14.40;99.90;;;;;;4784574;30;20088;-76
2020/12/21 15:49:12;;;;;;;79.03;32.28;;;14.40;99.90;;;;;;4784512;30;20046;-77
2020/12/21 15:51:38;;;;;;;60.85;27.38;;;14.40;99.90;;;;;;4783255;30;20031;-75
2020/12/21 15:54:04;;;;;;;46.30;21.05;;;14.30;99.90;;;;;;4783714;30;20027;-75
2020/12/21 15:56:30;;;;;;;42.72;17.95;;;14.20;99.90;;;;;;4783758;30;20043;-75
2020/12/21 15:58:56;;;;;;;31.55;14.82;;;14.20;99.90;;;;;;4784403;30;20043;-74
2020/12/21 16:01:22;;;;;;;27.45;12.80;;;14.20;99.90;;;;;;4766884;30;20039;-75
2020/12/21 16:03:49;;;;;;;23.58;12.10;;;14.10;99.90;;;;;;4767014;30;20035;-74
2020/12/21 16:06:15;;;;;;;20.67;10.38;;;14.10;99.90;;;;;;4767097;30;20686;-75
2020/12/21 16:08:41;;;;;;;19.05;9.43;;;14.00;99.90;;;;;;4767945;30;20035;-74
2020/12/21 16:11:07;;;;;;;27.70;16.58;;;14.00;99.90;;;;;;4753227;30;20114;-75
2020/12/21 16:13:33;;;;;;;28.10;12.60;;;13.80;99.90;;;;;;4784056;29;20038;-75
2020/12/21 16:15:59;;;;;;;19.17;9.25;;;13.80;99.90;;;;;;4784704;30;20372;-74
2020/12/21 16:18:25;;;;;;;14.85;9.07;;;13.70;99.90;;;;;;4767891;30;20031;-75
2020/12/21 16:20:51;;;;;;;13.05;7.20;;;13.60;99.90;;;;;;4788512;29;20041;-75
2020/12/21 16:23:17;;;;;;;12.55;7.80;;;13.60;99.90;;;;;;4790002;29;20126;-75
2020/12/21 16:25:43;;;;;;;12.90;6.97;;;13.60;99.90;;;;;;4784297;29;20458;-75
2020/12/21 16:28:10;;;;;;;10.35;6.35;;;13.50;99.90;;;;;;4767371;30;20400;-75
2020/12/21 16:30:36;;;;;;;14.25;7.50;;;13.50;99.90;;;;;;4784161;30;20049;-75
2020/12/21 16:33:02;;;;;;;13.55;9.30;;;13.50;99.90;;;;;;4783346;30;20151;-75
2020/12/21 16:35:30;;;;;;;14.85;9.95;;;13.40;99.90;;;;;;4783890;30;20051;-74
2020/12/21 16:37:57;;;;;;;16.15;10.57;;;13.30;99.90;;;;;;4783686;29;20055;-75
2020/12/21 16:40:23;;;;;;;16.70;10.52;;;13.30;99.90;;;;;;4784007;29;20058;-74
2020/12/21 16:42:49;;;;;;;18.95;10.50;;;13.20;99.90;;;;;;4783289;30;20380;-75
2020/12/21 16:45:15;;;;;;;18.83;10.52;;;13.20;99.90;;;;;;4783549;30;20031;-74
2020/12/21 16:47:41;;;;;;;23.02;11.93;;;13.30;99.90;;;;;;4784047;30;20035;-74
2020/12/21 16:50:08;;;;;;;20.02;12.40;;;13.40;99.90;;;;;;4783738;29;20044;-74
2020/12/21 16:52:34;;;;;;;18.27;11.15;;;13.30;99.90;;;;;;4784269;29;20035;-75
2020/12/21 16:55:00;;;;;;;18.92;10.52;;;13.30;99.90;;;;;;4783311;29;20039;-75
2020/12/21 16:57:26;;;;;;;16.95;10.30;;;13.20;99.90;;;;;;4767777;30;20035;-75
2020/12/21 16:59:52;;;;;;;14.38;9.07;;;13.20;99.90;;;;;;4783415;29;20394;-75
2020/12/21 17:02:18;;;;;;;13.88;10.02;;;13.20;99.90;;;;;;4783940;29;20046;-74
2020/12/21 17:04:44;;;;;;;17.38;10.23;;;13.20;99.90;;;;;;4767658;30;20027;-75
2020/12/21 17:07:10;;;;;;;16.75;10.32;;;13.20;99.90;;;;;;4767740;30;20083;-75
2020/12/21 17:09:36;;;;;;;15.00;10.48;;;13.20;99.90;;;;;;4783051;30;20034;-74
2020/12/21 17:12:02;;;;;;;15.93;10.13;;;13.30;99.90;;;;;;4783846;29;20123;-75
2020/12/21 17:14:30;;;;;;;18.33;10.73;;;13.30;99.90;;;;;;4770248;30;20034;-74
2020/12/21 17:16:57;;;;;;;14.75;10.23;;;13.30;99.90;;;;;;4787434;30;20088;-75
2020/12/21 17:19:23;;;;;;;14.65;9.93;;;13.30;99.90;;;;;;4786683;29;20038;-74
2020/12/21 17:21:49;;;;;;;16.52;10.18;;;13.30;99.90;;;;;;4784975;30;20077;-75
2020/12/21 17:24:16;;;;;;;13.38;9.35;;;13.30;99.90;;;;;;4770472;30;20502;-74
2020/12/21 17:26:42;;;;;;;16.13;9.20;;;13.30;99.90;;;;;;4787068;30;20040;-75
2020/12/21 17:29:09;;;;;;;15.13;9.73;;;13.30;99.90;;;;;;4786509;30;20039;-75
2020/12/21 17:31:35;;;;;;;17.70;11.18;;;13.20;99.90;;;;;;4770793;30;20070;-75
2020/12/21 17:34:02;;;;;;;16.02;10.35;;;13.20;99.90;;;;;;4786750;30;20254;-76
2020/12/21 17:36:28;;;;;;;24.67;13.30;;;13.20;99.90;;;;;;4786735;29;20055;-76
2020/12/21 17:38:54;;;;;;;44.90;19.35;;;13.20;99.90;;;;;;4769738;30;20051;-76
2020/12/21 17:41:20;;;;;;;65.18;26.42;;;13.20;99.90;;;;;;4786519;29;20046;-75
2020/12/21 17:43:46;;;;;;;82.45;32.55;;;13.10;99.90;;;;;;4786816;29;20134;-75
2020/12/21 17:46:12;;;;;;;69.45;32.28;;;13.00;99.90;;;;;;4770476;30;20035;-75
2020/12/21 17:48:38;;;;;;;70.30;32.38;;;13.00;99.90;;;;;;4786217;29;20092;-75
2020/12/21 17:51:04;;;;;;;94.97;38.92;;;13.10;99.90;;;;;;4786611;29;20122;-74
2020/12/21 17:53:30;;;;;;;105.53;44.70;;;13.00;99.90;;;;;;4787315;30;20034;-75
2020/12/21 17:55:56;;;;;;;131.80;52.88;;;13.10;99.90;;;;;;4786157;29;20043;-75
2020/12/21 17:58:22;;;;;;;124.30;52.67;;;13.10;99.90;;;;;;4786743;29;20375;-75
2020/12/21 18:00:48;;;;;;;83.25;37.17;;;13.20;99.90;;;;;;4786389;29;20031;-76
2020/12/21 18:03:17;;;;;;;71.72;33.85;;;13.20;99.90;;;;;;4786712;29;20024;-76
2020/12/21 18:05:43;;;;;;;92.68;40.42;;;13.20;99.90;;;;;;4786129;29;20035;-76
2020/12/21 18:08:10;;;;;;;113.05;48.67;;;13.20;99.90;;;;;;4786511;29;20035;-76
2020/12/21 18:10:36;;;;;;;112.60;52.22;;;13.20;99.90;;;;;;4785899;30;20116;-76
2020/12/21 18:13:02;;;;;;;121.95;47.10;;;13.30;99.90;;;;;;4770595;30;20530;-76
2020/12/21 18:15:29;;;;;;;107.57;49.90;;;13.30;99.90;;;;;;4786695;29;20051;-76
2020/12/21 18:17:55;;;;;;;110.72;46.60;;;13.30;99.90;;;;;;4785842;30;20039;-77
2020/12/21 18:20:22;;;;;;;104.80;45.72;;;13.30;99.90;;;;;;4786514;29;20093;-77
2020/12/21 18:22:48;;;;;;;113.30;48.65;;;13.30;99.90;;;;;;4784822;30;20062;-77
2020/12/21 18:25:14;;;;;;;105.97;44.28;;;13.40;99.90;;;;;;4769475;30;20532;-77
2020/12/21 18:27:41;;;;;;;130.48;53.17;;;13.40;99.90;;;;;;4785777;30;20119;-77
2020/12/21 18:30:07;;;;;;;110.32;48.33;;;13.40;99.90;;;;;;4785849;30;20499;-77
2020/12/21 18:32:33;;;;;;;91.20;41.05;;;13.40;99.90;;;;;;4770195;30;20040;-77
2020/12/21 18:34:59;;;;;;;67.25;30.52;;;13.50;99.90;;;;;;4769107;30;20096;-77
2020/12/21 18:37:25;;;;;;;37.53;20.15;;;13.50;99.90;;;;;;4785368;30;20055;-77
2020/12/21 18:39:52;;;;;;;25.23;15.88;;;13.50;99.90;;;;;;4769876;29;20035;-77
2020/12/21 18:42:20;;;;;;;18.60;13.07;;;13.50;99.90;;;;;;4789244;29;20035;-77
2020/12/21 18:44:47;;;;;;;18.23;11.23;;;13.60;99.90;;;;;;4784366;30;20028;-77
2020/12/21 18:47:15;;;;;;;22.30;11.38;;;13.60;99.90;;;;;;4768787;30;20399;-77
2020/12/21 18:49:41;;;;;;;18.80;11.93;;;13.60;99.90;;;;;;4786091;30;20039;-77
2020/12/21 18:52:09;;;;;;;28.60;16.60;;;13.60;99.90;;;;;;4778869;29;20053;-77
2020/12/21 18:54:36;;;;;;;39.10;20.35;;;13.50;99.90;;;;;;4789573;29;20046;-77
2020/12/21 18:57:07;;;;;;;47.63;24.60;;;13.50;99.90;;;;;;4790440;29;20047;-77
2020/12/21 18:59:34;;;;;;;54.50;24.90;;;13.50;99.90;;;;;;4790091;29;20036;-77
2020/12/21 19:02:03;;;;;;;63.42;30.00;;;13.50;99.90;;;;;;4790164;29;20827;-78
2020/12/21 19:04:29;;;;;;;84.30;33.30;;;13.60;99.90;;;;;;4794195;29;20089;-78
2020/12/21 19:06:57;;;;;;;76.30;32.80;;;13.60;99.90;;;;;;4775594;29;20035;-79
2020/12/21 19:09:23;;;;;;;85.63;34.65;;;13.60;99.90;;;;;;4787260;29;20051;-77
2020/12/21 19:11:51;;;;;;;67.63;33.03;;;13.60;99.90;;;;;;4776647;29;20470;-77
2020/12/21 19:14:18;;;;;;;71.18;31.23;;;13.60;99.90;;;;;;4786562;29;20479;-77
2020/12/21 19:16:44;;;;;;;64.28;30.30;;;13.60;99.90;;;;;;4793579;29;20046;-77
2020/12/21 19:19:11;;;;;;;69.57;28.27;;;13.60;99.90;;;;;;4792068;29;20385;-77
2020/12/21 19:21:37;;;;;;;57.70;27.85;;;13.50;99.90;;;;;;4790851;29;20050;-77
2020/12/21 19:24:04;;;;;;;48.72;24.70;;;13.50;99.90;;;;;;4785614;29;20051;-76
2020/12/21 19:26:30;;;;;;;43.58;21.05;;;13.50;99.90;;;;;;4776167;29;20427;-77
2020/12/21 19:28:56;;;;;;;42.03;19.42;;;13.40;99.90;;;;;;4788915;29;20030;-77
2020/12/21 19:31:31;;;;;;;37.25;18.02;;;13.40;99.90;;;;;;4794433;29;20042;-78
2020/12/21 19:33:57;;;;;;;46.83;16.85;;;13.40;99.90;;;;;;4785461;29;20032;-77
2020/12/21 19:36:23;;;;;;;26.67;14.85;;;13.40;99.90;;;;;;4789756;29;20039;-78
2020/12/21 19:38:49;;;;;;;23.10;13.20;;;13.40;99.90;;;;;;4770575;30;20043;-78
2020/12/21 19:41:15;;;;;;;23.45;14.38;;;13.40;99.90;;;;;;4773088;30;20075;-77
2020/12/21 19:43:41;;;;;;;23.95;13.02;;;13.40;99.90;;;;;;4774820;29;20122;-78
2020/12/21 19:46:07;;;;;;;20.88;12.63;;;13.40;99.90;;;;;;4771766;29;20547;-77
2020/12/21 19:48:33;;;;;;;22.77;12.63;;;13.40;99.90;;;;;;4776764;29;20027;-78
2020/12/21 19:50:59;;;;;;;18.67;10.73;;;13.40;99.90;;;;;;4771149;30;20119;-77
2020/12/21 19:53:25;;;;;;;19.85;11.00;;;13.40;99.90;;;;;;4775638;29;20054;-78
2020/12/21 19:55:51;;;;;;;17.15;9.98;;;13.40;99.90;;;;;;4773758;29;20073;-78
2020/12/21 19:58:17;;;;;;;16.63;10.65;;;13.40;99.90;;;;;;4772672;30;20043;-78
2020/12/21 20:00:46;;;;;;;14.63;10.07;;;13.40;99.90;;;;;;4774106;29;20032;-77
2020/12/21 20:03:13;;;;;;;17.88;10.93;;;13.40;99.90;;;;;;4775453;29;20054;-77
2020/12/21 20:05:39;;;;;;;15.75;10.65;;;13.40;99.90;;;;;;4771956;29;20031;-78
2020/12/21 20:08:05;;;;;;;16.05;10.15;;;13.40;99.90;;;;;;4774578;29;20085;-78
2020/12/21 20:10:31;;;;;;;19.42;10.93;;;13.30;99.90;;;;;;4774697;30;20502;-78
2020/12/21 20:12:59;;;;;;;16.02;10.27;;;13.30;99.90;;;;;;4774380;29;20040;-78
2020/12/21 20:15:25;;;;;;;18.65;11.23;;;13.30;99.90;;;;;;4776413;30;20051;-78
2020/12/21 20:17:51;;;;;;;15.93;9.95;;;13.30;99.90;;;;;;4773197;30;20050;-78
2020/12/21 20:20:18;;;;;;;19.13;10.40;;;13.30;99.90;;;;;;4753631;30;20051;-78
2020/12/21 20:22:44;;;;;;;14.35;9.40;;;13.30;99.90;;;;;;4770999;30;20050;-78
2020/12/21 20:25:10;;;;;;;15.00;8.95;;;13.30;99.90;;;;;;4758323;30;20047;-78
2020/12/21 20:27:37;;;;;;;18.45;10.07;;;13.20;99.90;;;;;;4771340;30;20043;-77
2020/12/21 20:30:07;;;;;;;16.02;10.32;;;13.20;99.90;;;;;;4756495;30;20044;-78
2020/12/21 20:32:34;;;;;;;17.35;11.02;;;13.20;99.90;;;;;;4774272;30;20039;-77
2020/12/21 20:35:01;;;;;;;17.80;11.57;;;13.20;99.90;;;;;;4770834;29;20078;-77
2020/12/21 20:37:27;;;;;;;16.58;10.70;;;13.20;99.90;;;;;;4776422;30;20475;-77
2020/12/21 20:39:53;;;;;;;17.42;11.65;;;13.20;99.90;;;;;;4782197;29;20031;-77
2020/12/21 20:42:19;;;;;;;20.05;11.40;;;13.20;99.90;;;;;;4763302;30;20043;-78
2020/12/21 20:44:46;;;;;;;20.30;11.93;;;13.20;99.90;;;;;;4765986;30;20027;-78
2020/12/21 20:47:13;;;;;;;17.00;11.63;;;13.20;99.90;;;;;;4779381;30;20090;-78
2020/12/21 20:49:42;;;;;;;17.63;11.05;;;13.20;99.90;;;;;;4779334;29;20024;-78
2020/12/21 20:52:11;;;;;;;19.98;11.45;;;13.20;99.90;;;;;;4782254;30;20503;-78
2020/12/21 20:54:38;;;;;;;16.65;11.43;;;13.20;99.90;;;;;;4786094;30;20027;-77
2020/12/21 20:57:04;;;;;;;16.88;10.13;;;13.20;99.90;;;;;;4799749;29;20099;-75
2020/12/21 20:59:31;;;;;;;18.83;12.65;;;13.10;99.90;;;;;;4786425;29;20023;-77
2020/12/21 21:01:57;;;;;;;18.20;11.50;;;13.10;99.90;;;;;;4785154;29;20445;-77
2020/12/21 21:04:24;;;;;;;28.15;15.82;;;13.00;99.90;;;;;;4804364;29;20023;-77
2020/12/21 21:06:51;;;;;;;24.13;13.55;;;13.00;99.90;;;;;;4804010;29;20026;-78
2020/12/21 21:09:17;;;;;;;20.67;12.48;;;13.00;99.90;;;;;;4799473;29;20050;-77
2020/12/21 21:11:43;;;;;;;22.17;13.52;;;13.00;99.90;;;;;;4797590;29;20028;-77